Time;durP1;ratioP1;P1;durP2;ratioP2;P2;SDS_P1;SDS_P2;PMS_P1;PMS_P2;Temp;Humidity;BMP_temperature;BMP_pressure;BME280_temperature;BME280_humidity;BME280_pressure;Samples;Min_cycle;Max_cycle;Signal;HPM_P1;HPM_P2
2023/05/09 00:01:40;;;;;;;3.60;3.40;;;13.00;87.70;;;;;;4828276;29;20190;-83
2023/05/09 00:04:06;;;;;;;3.85;3.65;;;12.90;88.50;;;;;;4828282;29;20681;-83
2023/05/09 00:06:32;;;;;;;5.47;3.75;;;12.90;88.60;;;;;;4828557;29;20297;-83
2023/05/09 00:08:58;;;;;;;3.95;3.65;;;12.80;89.20;;;;;;4827416;29;20219;-83
2023/05/09 00:11:23;;;;;;;4.35;4.05;;;12.80;89.70;;;;;;4827890;29;20194;-83
2023/05/09 00:13:50;;;;;;;4.15;3.75;;;12.80;89.90;;;;;;4844183;29;20372;-83
2023/05/09 00:16:17;;;;;;;5.80;3.70;;;12.70;90.00;;;;;;4828248;29;20638;-83
2023/05/09 00:18:43;;;;;;;3.80;3.50;;;12.70;88.40;;;;;;4828294;29;20186;-83
2023/05/09 00:21:09;;;;;;;4.28;3.70;;;12.70;87.90;;;;;;4827655;29;20196;-83
2023/05/09 00:23:36;;;;;;;3.83;3.53;;;12.70;87.30;;;;;;4827694;29;20575;-83
2023/05/09 00:26:02;;;;;;;3.97;3.67;;;12.80;85.20;;;;;;4827512;29;20217;-83
2023/05/09 00:28:28;;;;;;;3.70;3.40;;;12.80;84.00;;;;;;4827408;29;20204;-83
2023/05/09 00:30:53;;;;;;;4.05;3.67;;;12.90;84.30;;;;;;4827345;29;20181;-83
2023/05/09 00:33:19;;;;;;;4.10;3.53;;;12.90;83.40;;;;;;4827007;29;20185;-83
2023/05/09 00:35:45;;;;;;;4.45;3.80;;;12.90;82.90;;;;;;4827373;29;20260;-83
2023/05/09 00:38:11;;;;;;;4.53;3.78;;;12.90;83.40;;;;;;4827121;29;20186;-83
2023/05/09 00:40:37;;;;;;;4.00;3.70;;;12.90;83.40;;;;;;4827323;29;20189;-83
2023/05/09 00:43:03;;;;;;;3.90;3.60;;;12.90;83.50;;;;;;4827502;29;20181;-83
2023/05/09 00:45:30;;;;;;;3.80;3.50;;;12.80;83.70;;;;;;4826854;29;20205;-83
2023/05/09 00:47:56;;;;;;;3.90;3.58;;;12.80;83.60;;;;;;4826991;29;20220;-83
2023/05/09 00:50:23;;;;;;;4.15;3.40;;;12.80;83.80;;;;;;4827040;29;20181;-83
2023/05/09 00:52:49;;;;;;;4.10;3.70;;;12.70;83.80;;;;;;4827196;29;20193;-83
2023/05/09 00:55:16;;;;;;;3.80;3.50;;;12.80;83.60;;;;;;4826908;29;20205;-83
2023/05/09 00:57:41;;;;;;;5.53;3.53;;;12.70;83.20;;;;;;4827097;29;20250;-83
2023/05/09 01:00:16;;;;;;;4.00;3.65;;;12.80;83.40;;;;;;4827862;29;20218;-83
2023/05/09 01:27:44;;;;;;;4.95;4.00;;;12.60;83.90;;;;;;5566967;23;20316;-85
2023/05/09 01:30:12;;;;;;;4.30;4.00;;;12.50;84.10;;;;;;4845976;29;20205;-84
2023/05/09 01:32:41;;;;;;;3.92;3.63;;;12.40;85.30;;;;;;4831369;29;20272;-84
2023/05/09 01:35:11;;;;;;;4.15;3.83;;;12.30;86.20;;;;;;4846102;29;20192;-84
2023/05/09 01:37:40;;;;;;;5.28;4.03;;;12.20;85.90;;;;;;4812400;29;20688;-84
2023/05/09 01:40:14;;;;;;;4.28;3.97;;;12.20;85.60;;;;;;4812031;29;20190;-84
2023/05/09 01:42:47;;;;;;;4.47;4.03;;;12.20;85.70;;;;;;4812638;29;20195;-84
2023/05/09 01:45:14;;;;;;;5.55;3.97;;;12.10;85.50;;;;;;4812402;29;20178;-84
2023/05/09 01:47:40;;;;;;;4.35;4.00;;;12.10;85.70;;;;;;4814300;29;20214;-81
2023/05/09 01:50:10;;;;;;;4.40;4.05;;;12.00;87.20;;;;;;4813049;29;20272;-81
2023/05/09 01:52:39;;;;;;;3.80;3.50;;;11.80;88.30;;;;;;4812172;29;20182;-81
2023/05/09 01:55:07;;;;;;;5.50;4.38;;;11.80;87.80;;;;;;4813245;29;20194;-81
2023/05/09 01:57:35;;;;;;;4.57;4.18;;;11.70;88.00;;;;;;4813157;29;20244;-81
2023/05/09 02:00:01;;;;;;;4.60;4.20;;;11.60;88.30;;;;;;4812616;29;20328;-81
2023/05/09 02:02:28;;;;;;;4.43;4.03;;;11.50;89.20;;;;;;4812820;29;20248;-81
2023/05/09 02:04:56;;;;;;;4.60;4.20;;;11.50;89.50;;;;;;4828293;29;20182;-81
2023/05/09 02:07:23;;;;;;;4.88;4.47;;;11.40;89.90;;;;;;4813530;29;20263;-80
2023/05/09 02:09:52;;;;;;;5.00;4.03;;;11.30;90.20;;;;;;4813874;29;20617;-80
2023/05/09 02:12:18;;;;;;;5.55;4.43;;;11.20;90.20;;;;;;4813140;29;20225;-80
2023/05/09 02:14:47;;;;;;;4.22;3.92;;;11.20;90.40;;;;;;4814289;29;20668;-81
2023/05/09 02:17:15;;;;;;;4.25;3.92;;;11.10;90.60;;;;;;4827330;29;20262;-81
2023/05/09 02:19:42;;;;;;;4.47;4.07;;;11.00;90.60;;;;;;4825976;29;20194;-81
2023/05/09 02:22:08;;;;;;;4.68;4.28;;;11.00;90.90;;;;;;4811439;29;20265;-82
2023/05/09 02:24:34;;;;;;;5.15;4.20;;;11.00;90.80;;;;;;4812057;29;20692;-81
2023/05/09 02:27:02;;;;;;;4.70;4.40;;;10.90;91.10;;;;;;4812582;29;20232;-81
2023/05/09 02:29:38;;;;;;;4.47;4.07;;;10.90;91.40;;;;;;4811413;29;20178;-82
2023/05/09 02:32:11;;;;;;;4.95;4.55;;;10.90;91.30;;;;;;4811838;29;20181;-82
2023/05/09 02:34:40;;;;;;;4.55;4.20;;;10.90;91.20;;;;;;4811978;29;20178;-81
2023/05/09 02:37:07;;;;;;;5.35;4.43;;;10.80;91.40;;;;;;4811935;29;20214;-81
2023/05/09 02:39:33;;;;;;;4.97;4.30;;;10.80;91.60;;;;;;4812504;29;20186;-82
2023/05/09 02:42:14;;;;;;;4.78;4.38;;;10.80;91.60;;;;;;4810508;29;20190;-81
2023/05/09 02:44:40;;;;;;;4.90;4.50;;;10.80;91.60;;;;;;4809871;29;20185;-81
2023/05/09 02:47:06;;;;;;;5.68;4.38;;;10.90;91.20;;;;;;4810174;29;20218;-81
2023/05/09 02:49:33;;;;;;;4.45;4.05;;;11.10;91.00;;;;;;4824438;29;20206;-81
2023/05/09 02:51:59;;;;;;;5.43;4.40;;;11.20;90.70;;;;;;4809133;29;20247;-81
2023/05/09 02:54:30;;;;;;;4.57;4.18;;;11.30;90.30;;;;;;4809276;29;20178;-81
2023/05/09 02:56:56;;;;;;;4.75;4.22;;;11.40;90.10;;;;;;4826332;29;20221;-81
2023/05/09 02:59:22;;;;;;;4.63;4.22;;;11.50;90.00;;;;;;4827258;29;20634;-81
2023/05/09 03:01:47;;;;;;;4.70;4.28;;;11.50;89.70;;;;;;4827706;29;20186;-81
2023/05/09 03:04:13;;;;;;;4.90;4.35;;;11.60;88.90;;;;;;4827506;29;20187;-81
2023/05/09 03:06:39;;;;;;;4.88;4.30;;;11.60;89.30;;;;;;4827441;29;20214;-81
2023/05/09 03:09:04;;;;;;;5.07;4.63;;;11.50;89.70;;;;;;4827645;29;20205;-81
2023/05/09 03:11:30;;;;;;;4.97;4.30;;;11.40;90.00;;;;;;4827697;29;20188;-81
2023/05/09 03:13:56;;;;;;;4.85;4.45;;;11.30;90.50;;;;;;4826804;29;20190;-81
2023/05/09 03:16:22;;;;;;;4.90;4.50;;;11.20;90.50;;;;;;4829000;29;20232;-81
2023/05/09 03:18:47;;;;;;;4.70;4.25;;;11.20;90.60;;;;;;4825019;29;20285;-81
2023/05/09 03:21:16;;;;;;;5.00;4.40;;;11.10;90.60;;;;;;4825494;29;20194;-81
2023/05/09 03:23:41;;;;;;;4.50;4.10;;;11.10;90.90;;;;;;4825577;29;20182;-81
2023/05/09 03:26:07;;;;;;;4.95;4.55;;;11.00;91.10;;;;;;4825537;29;20226;-81
2023/05/09 03:28:33;;;;;;;5.93;4.60;;;10.90;91.30;;;;;;4825401;29;20202;-81
2023/05/09 03:30:59;;;;;;;4.88;4.47;;;10.90;91.30;;;;;;4825474;29;20185;-81
2023/05/09 03:33:24;;;;;;;4.97;4.47;;;10.90;91.30;;;;;;4826630;29;20188;-81
2023/05/09 03:35:50;;;;;;;5.07;4.68;;;10.90;91.70;;;;;;4827273;29;20198;-81
2023/05/09 03:38:16;;;;;;;5.28;4.78;;;10.80;91.40;;;;;;4810533;29;20259;-81
2023/05/09 03:40:42;;;;;;;5.00;4.25;;;10.80;91.40;;;;;;4826665;29;20194;-81
2023/05/09 03:43:08;;;;;;;5.10;4.70;;;10.80;91.40;;;;;;4809359;29;20205;-81
2023/05/09 03:45:35;;;;;;;5.38;4.50;;;10.90;91.40;;;;;;4824938;29;20258;-81
2023/05/09 03:48:04;;;;;;;6.80;4.93;;;10.90;91.40;;;;;;4825923;29;20210;-81
2023/05/09 03:50:39;;;;;;;5.20;4.63;;;10.90;91.60;;;;;;4809623;29;20670;-81
2023/05/09 03:53:05;;;;;;;6.65;4.57;;;10.90;91.60;;;;;;4810758;29;20195;-82
2023/05/09 03:55:31;;;;;;;6.10;4.40;;;11.00;91.50;;;;;;4825019;29;20218;-81
2023/05/09 03:57:59;;;;;;;6.50;4.90;;;11.00;91.50;;;;;;4825393;29;20537;-84
2023/05/09 04:00:25;;;;;;;4.68;4.20;;;11.00;91.70;;;;;;4824705;29;20214;-84
2023/05/09 04:02:51;;;;;;;4.97;4.57;;;10.90;91.70;;;;;;4826651;29;20186;-84
2023/05/09 04:05:20;;;;;;;7.38;4.35;;;10.90;91.90;;;;;;4810538;29;20193;-84
2023/05/09 04:07:46;;;;;;;7.75;4.85;;;10.90;91.70;;;;;;4824810;29;20210;-84
2023/05/09 04:10:11;;;;;;;5.50;5.00;;;10.80;92.00;;;;;;4824262;29;20558;-84
2023/05/09 04:12:37;;;;;;;5.25;4.85;;;10.70;92.20;;;;;;4824836;29;20193;-86
2023/05/09 04:15:03;;;;;;;6.40;4.85;;;10.80;92.30;;;;;;4809734;29;20233;-84
2023/05/09 04:17:29;;;;;;;5.10;4.57;;;10.70;92.50;;;;;;4810029;29;20206;-83
2023/05/09 04:19:55;;;;;;;5.63;4.82;;;10.60;92.80;;;;;;4825622;29;20281;-84
2023/05/09 04:22:20;;;;;;;6.35;4.75;;;10.60;92.70;;;;;;4826641;29;20197;-83
2023/05/09 04:24:49;;;;;;;5.22;4.82;;;10.70;92.70;;;;;;4825085;29;20229;-83
2023/05/09 04:27:15;;;;;;;7.13;4.70;;;10.60;92.80;;;;;;4809128;29;20634;-83
2023/05/09 04:29:41;;;;;;;7.57;4.70;;;10.60;92.70;;;;;;4824261;29;20269;-83
2023/05/09 04:32:06;;;;;;;5.82;4.93;;;10.70;92.70;;;;;;4824581;29;20263;-83
2023/05/09 04:34:32;;;;;;;5.22;4.75;;;10.80;92.60;;;;;;4824344;29;20190;-83
2023/05/09 04:36:58;;;;;;;5.15;4.75;;;10.90;92.50;;;;;;4810777;29;20264;-85
2023/05/09 04:39:23;;;;;;;4.93;4.50;;;10.80;92.40;;;;;;4824307;29;20291;-85
2023/05/09 04:41:49;;;;;;;5.30;4.80;;;10.90;92.20;;;;;;4824428;29;20181;-85
2023/05/09 04:44:20;;;;;;;11.88;5.25;;;11.00;92.00;;;;;;4823927;29;20269;-85
2023/05/09 04:46:46;;;;;;;25.33;7.10;;;11.10;91.50;;;;;;4810009;29;20221;-85
2023/05/09 04:49:11;;;;;;;15.63;8.00;;;11.10;91.50;;;;;;4824265;29;20182;-83
2023/05/09 04:51:37;;;;;;;12.05;6.28;;;11.20;91.70;;;;;;4808837;29;20242;-84
2023/05/09 04:54:02;;;;;;;10.90;5.25;;;11.10;91.60;;;;;;4823798;29;20218;-84
2023/05/09 04:56:28;;;;;;;5.85;4.90;;;11.20;91.40;;;;;;4823813;29;20225;-85
2023/05/09 04:58:56;;;;;;;7.47;4.90;;;11.30;90.90;;;;;;4824539;29;20197;-83
2023/05/09 05:01:25;;;;;;;5.38;4.47;;;11.40;91.10;;;;;;4824616;29;20190;-82
2023/05/09 05:03:51;;;;;;;4.53;4.10;;;11.50;90.50;;;;;;4825116;29;20231;-82
2023/05/09 05:06:19;;;;;;;7.50;4.53;;;11.60;90.20;;;;;;4824745;29;20218;-82
2023/05/09 05:08:45;;;;;;;4.78;4.38;;;11.70;90.20;;;;;;4809892;29;20313;-82
2023/05/09 05:11:12;;;;;;;5.35;4.53;;;11.80;89.80;;;;;;4824993;29;20182;-82
2023/05/09 05:13:39;;;;;;;7.15;5.13;;;11.80;89.20;;;;;;4824705;29;20191;-82
2023/05/09 05:16:11;;;;;;;5.18;4.68;;;11.90;89.20;;;;;;4823672;29;20284;-82
2023/05/09 05:18:43;;;;;;;4.95;4.53;;;12.00;89.40;;;;;;4809019;29;20201;-82
2023/05/09 05:21:09;;;;;;;4.90;4.10;;;12.10;88.40;;;;;;4808712;29;20190;-82
2023/05/09 05:23:34;;;;;;;4.55;4.15;;;12.20;88.50;;;;;;4808484;29;20190;-84
2023/05/09 05:26:00;;;;;;;5.30;4.43;;;12.20;87.90;;;;;;4808872;29;20215;-83
2023/05/09 05:28:25;;;;;;;4.68;4.38;;;12.30;88.10;;;;;;4808522;29;20208;-82
2023/05/09 05:30:51;;;;;;;7.40;4.55;;;12.40;87.70;;;;;;4808143;29;20185;-83
2023/05/09 05:33:17;;;;;;;4.70;4.30;;;12.50;87.60;;;;;;4808263;29;20274;-82
2023/05/09 05:35:42;;;;;;;6.03;4.03;;;12.70;87.30;;;;;;4808286;29;20209;-82
2023/05/09 05:38:08;;;;;;;4.50;4.05;;;12.80;86.40;;;;;;4808345;29;20233;-82
2023/05/09 05:40:33;;;;;;;7.53;4.30;;;13.00;85.00;;;;;;4808165;29;20186;-82
2023/05/09 05:42:59;;;;;;;7.55;4.20;;;13.10;84.80;;;;;;4808992;29;20206;-82
2023/05/09 05:45:25;;;;;;;4.75;4.35;;;13.30;85.10;;;;;;4808866;29;20194;-82
2023/05/09 05:47:50;;;;;;;4.78;4.30;;;13.50;84.40;;;;;;4809110;29;20210;-83
2023/05/09 05:50:16;;;;;;;5.50;4.45;;;13.60;83.80;;;;;;4824821;29;20197;-84
2023/05/09 05:52:42;;;;;;;5.03;4.20;;;13.60;83.20;;;;;;4808005;29;20269;-83
2023/05/09 05:55:08;;;;;;;5.93;4.53;;;13.70;83.80;;;;;;4808135;29;20285;-84
2023/05/09 05:57:34;;;;;;;11.63;4.43;;;13.70;83.80;;;;;;4811016;29;20206;-83
2023/05/09 06:00:00;;;;;;;5.38;4.60;;;13.70;83.10;;;;;;4810671;29;20206;-83
2023/05/09 06:02:26;;;;;;;5.25;4.45;;;13.80;84.00;;;;;;4810850;29;20193;-83
2023/05/09 06:04:51;;;;;;;5.53;4.50;;;13.90;84.30;;;;;;4811031;29;20182;-83
2023/05/09 06:07:17;;;;;;;7.32;4.57;;;14.00;83.00;;;;;;4826973;29;20218;-83
2023/05/09 06:09:43;;;;;;;8.07;4.60;;;14.10;83.30;;;;;;4811145;29;20189;-83
2023/05/09 06:12:08;;;;;;;5.85;4.93;;;14.10;83.20;;;;;;4810938;29;20178;-83
2023/05/09 06:14:34;;;;;;;6.22;4.75;;;14.20;83.80;;;;;;4810826;29;20270;-84
2023/05/09 06:17:00;;;;;;;5.72;5.00;;;14.30;82.20;;;;;;4811011;29;20206;-83
2023/05/09 06:19:25;;;;;;;9.73;4.80;;;14.30;82.60;;;;;;4810606;29;20187;-83
2023/05/09 06:21:51;;;;;;;18.00;5.55;;;14.30;82.20;;;;;;4811203;29;20198;-83
2023/05/09 06:24:17;;;;;;;8.85;5.22;;;14.40;83.40;;;;;;4811215;29;20218;-83
2023/05/09 06:26:42;;;;;;;4.68;4.28;;;14.40;82.30;;;;;;4810567;29;20214;-83
2023/05/09 06:29:08;;;;;;;10.57;5.28;;;14.40;81.60;;;;;;4810332;29;20707;-83
2023/05/09 06:31:37;;;;;;;7.75;4.72;;;14.50;82.70;;;;;;4811298;29;20213;-83
2023/05/09 06:34:03;;;;;;;12.05;5.15;;;14.50;81.10;;;;;;4810468;29;20209;-83
2023/05/09 06:36:29;;;;;;;5.93;4.90;;;14.60;82.80;;;;;;4810648;29;20206;-83
2023/05/09 06:38:55;;;;;;;7.40;4.78;;;14.70;82.80;;;;;;4809994;29;20198;-83
2023/05/09 06:41:21;;;;;;;6.40;4.70;;;14.90;82.70;;;;;;4810178;29;20232;-83
2023/05/09 06:43:47;;;;;;;5.07;4.57;;;15.10;82.00;;;;;;4809991;29;20193;-83
2023/05/09 06:46:12;;;;;;;6.88;4.78;;;15.30;81.60;;;;;;4810214;29;20579;-83
2023/05/09 06:48:38;;;;;;;6.07;4.45;;;15.40;80.80;;;;;;4810790;29;20186;-83
2023/05/09 06:51:03;;;;;;;5.32;4.50;;;15.50;80.90;;;;;;4810403;29;20186;-83
2023/05/09 06:53:29;;;;;;;5.97;4.85;;;15.60;79.50;;;;;;4810301;29;20685;-83
2023/05/09 06:55:55;;;;;;;5.40;4.90;;;15.60;79.80;;;;;;4809986;29;20214;-83
2023/05/09 06:58:21;;;;;;;5.05;4.60;;;15.60;79.40;;;;;;4812086;29;20193;-84
2023/05/09 07:00:47;;;;;;;7.10;5.28;;;15.70;81.00;;;;;;4817633;29;20277;-85
2023/05/09 07:03:16;;;;;;;5.40;4.90;;;15.70;79.80;;;;;;4817260;29;20266;-86
2023/05/09 07:05:41;;;;;;;8.13;4.63;;;15.80;80.00;;;;;;4832936;29;20569;-85
2023/05/09 07:08:07;;;;;;;7.00;4.97;;;16.00;80.40;;;;;;4810279;29;20217;-85
2023/05/09 07:10:33;;;;;;;8.98;5.30;;;16.20;80.30;;;;;;4809651;29;20186;-85
2023/05/09 07:12:59;;;;;;;8.00;5.05;;;16.50;79.00;;;;;;4810263;29;20182;-85
2023/05/09 07:15:24;;;;;;;9.77;5.10;;;16.60;78.90;;;;;;4810353;29;20217;-86
2023/05/09 07:17:51;;;;;;;9.15;4.70;;;16.90;79.10;;;;;;4810281;29;20193;-86
2023/05/09 07:20:17;;;;;;;5.43;4.90;;;17.10;78.10;;;;;;4809708;29;20680;-84
2023/05/09 07:22:42;;;;;;;5.15;4.68;;;16.90;77.20;;;;;;4810186;29;20183;-84
2023/05/09 07:25:09;;;;;;;5.63;5.13;;;17.10;77.40;;;;;;4810016;29;20555;-85
2023/05/09 07:27:35;;;;;;;6.45;5.05;;;17.20;76.90;;;;;;4809331;29;20283;-85
2023/05/09 07:30:03;;;;;;;7.15;4.88;;;17.20;77.40;;;;;;4809485;29;20265;-85
2023/05/09 07:32:28;;;;;;;7.45;5.00;;;17.30;78.10;;;;;;4809097;29;20243;-85
2023/05/09 07:34:54;;;;;;;7.28;5.50;;;17.40;77.20;;;;;;4809588;29;20182;-85
2023/05/09 07:37:19;;;;;;;6.60;5.03;;;17.40;75.60;;;;;;4809041;29;20206;-85
2023/05/09 07:39:48;;;;;;;6.53;5.80;;;17.40;76.60;;;;;;4809414;29;20190;-85
2023/05/09 07:42:14;;;;;;;7.07;5.47;;;17.30;75.80;;;;;;4810079;29;20196;-85
2023/05/09 07:44:40;;;;;;;6.65;6.05;;;17.10;77.20;;;;;;4825758;29;20196;-85
2023/05/09 07:47:07;;;;;;;5.80;5.30;;;17.20;76.70;;;;;;4808945;29;20214;-85
2023/05/09 07:49:33;;;;;;;7.13;5.60;;;17.30;76.30;;;;;;4810001;29;20182;-85
2023/05/09 07:51:59;;;;;;;6.15;5.60;;;17.40;77.20;;;;;;4809215;29;20186;-85
2023/05/09 07:54:25;;;;;;;8.23;5.80;;;17.50;77.20;;;;;;4808832;29;20186;-85
2023/05/09 07:56:50;;;;;;;10.93;5.40;;;17.70;76.50;;;;;;4809405;29;20701;-85
2023/05/09 07:59:17;;;;;;;9.73;5.60;;;17.80;77.50;;;;;;4809170;29;20666;-85
2023/05/09 08:01:42;;;;;;;6.80;6.07;;;18.00;76.80;;;;;;4825374;29;20269;-85
2023/05/09 08:04:08;;;;;;;6.75;5.78;;;18.00;75.40;;;;;;4809332;29;20281;-85
2023/05/09 08:06:34;;;;;;;6.03;5.57;;;18.20;77.10;;;;;;4808494;29;20214;-85
2023/05/09 08:09:00;;;;;;;7.13;5.97;;;18.10;75.50;;;;;;4808651;29;20186;-85
2023/05/09 08:11:26;;;;;;;9.70;5.50;;;18.10;73.60;;;;;;4809169;29;20259;-85
2023/05/09 08:13:52;;;;;;;6.30;5.70;;;18.30;75.10;;;;;;4808420;29;20182;-85
2023/05/09 08:16:18;;;;;;;16.50;5.78;;;18.50;73.20;;;;;;4808454;29;20262;-85
2023/05/09 08:18:44;;;;;;;7.90;5.00;;;18.60;71.70;;;;;;4807888;29;20190;-85
2023/05/09 08:21:10;;;;;;;12.38;5.50;;;18.80;72.80;;;;;;4808698;29;20185;-85
2023/05/09 08:23:36;;;;;;;6.07;5.43;;;18.90;72.60;;;;;;4808310;29;20190;-85
2023/05/09 08:26:01;;;;;;;5.95;5.10;;;19.00;70.50;;;;;;4808405;29;20202;-85
2023/05/09 08:28:27;;;;;;;5.43;5.03;;;19.30;71.10;;;;;;4808257;29;20205;-85
2023/05/09 08:30:56;;;;;;;7.70;5.45;;;19.40;70.70;;;;;;4809308;29;20273;-85
2023/05/09 08:33:22;;;;;;;6.00;5.22;;;19.50;70.60;;;;;;4808396;29;20279;-85
2023/05/09 08:35:55;;;;;;;5.45;4.95;;;19.60;70.80;;;;;;4808561;29;20214;-85
2023/05/09 08:38:23;;;;;;;6.78;5.22;;;19.70;69.80;;;;;;4808356;29;20214;-85
2023/05/09 08:40:48;;;;;;;8.32;4.97;;;19.80;69.10;;;;;;4808523;29;20183;-85
2023/05/09 08:43:18;;;;;;;7.90;5.50;;;19.70;69.60;;;;;;4808102;29;20189;-85
2023/05/09 08:46:14;;;;;;;6.25;5.65;;;19.70;70.20;;;;;;4808371;29;20262;-85
2023/05/09 08:48:43;;;;;;;5.72;5.13;;;19.60;68.40;;;;;;4797607;29;20202;-85
2023/05/09 08:51:10;;;;;;;8.32;5.10;;;19.70;69.60;;;;;;4808100;29;20280;-85
2023/05/09 08:53:36;;;;;;;6.97;5.10;;;19.60;70.60;;;;;;4808153;29;20178;-86
2023/05/09 08:56:03;;;;;;;6.38;5.25;;;19.80;71.00;;;;;;4808493;29;20238;-85
2023/05/09 08:58:30;;;;;;;9.27;4.80;;;19.80;69.70;;;;;;4825231;29;20190;-85
2023/05/09 09:00:55;;;;;;;6.32;5.60;;;19.90;69.40;;;;;;4808074;29;20182;-85
2023/05/09 09:03:24;;;;;;;12.73;4.97;;;19.90;68.20;;;;;;4808970;29;20264;-85
2023/05/09 09:05:51;;;;;;;5.97;5.38;;;19.90;69.80;;;;;;4808726;29;20219;-86
2023/05/09 09:08:18;;;;;;;6.30;5.10;;;19.90;68.10;;;;;;4808186;29;20471;-85
2023/05/09 09:10:47;;;;;;;5.55;5.15;;;19.90;67.40;;;;;;4808155;29;20265;-85
2023/05/09 09:13:13;;;;;;;5.57;4.90;;;19.90;68.40;;;;;;4808208;29;20564;-85
2023/05/09 09:15:42;;;;;;;5.90;4.90;;;19.90;66.80;;;;;;4808499;29;20203;-86
2023/05/09 09:18:10;;;;;;;5.38;4.88;;;20.00;69.00;;;;;;4808227;29;20217;-85
2023/05/09 09:20:43;;;;;;;9.65;5.22;;;20.10;68.90;;;;;;4807843;29;20190;-86
2023/05/09 09:23:11;;;;;;;5.50;5.00;;;20.10;66.70;;;;;;4808359;29;20545;-85
2023/05/09 09:25:37;;;;;;;10.18;4.22;;;20.00;65.00;;;;;;4808457;29;20203;-85
2023/05/09 09:28:04;;;;;;;8.13;4.80;;;20.10;66.30;;;;;;4807863;29;20214;-85
2023/05/09 09:30:30;;;;;;;10.85;4.82;;;20.20;66.00;;;;;;4810009;29;20252;-85
2023/05/09 09:32:59;;;;;;;9.45;4.88;;;20.30;66.20;;;;;;4811338;29;20182;-85
2023/05/09 09:35:24;;;;;;;9.68;3.92;;;20.30;65.20;;;;;;4811982;29;20182;-86
2023/05/09 09:37:57;;;;;;;4.40;4.00;;;20.30;62.20;;;;;;4811800;29;20263;-85
2023/05/09 09:40:23;;;;;;;7.07;3.70;;;20.40;62.00;;;;;;4811876;29;20190;-85
2023/05/09 09:42:51;;;;;;;5.07;3.60;;;20.40;61.50;;;;;;4811618;29;20189;-85
2023/05/09 09:45:18;;;;;;;4.00;3.67;;;20.30;60.90;;;;;;4812159;29;20185;-86
2023/05/09 09:47:46;;;;;;;7.18;4.15;;;20.40;62.30;;;;;;4811254;29;20210;-85
2023/05/09 09:50:24;;;;;;;5.35;3.72;;;20.60;61.90;;;;;;4811287;29;20273;-86
2023/05/09 09:52:51;;;;;;;6.82;3.90;;;20.70;61.30;;;;;;4811704;29;20175;-85
2023/05/09 09:55:18;;;;;;;5.45;4.15;;;20.70;61.00;;;;;;4811077;29;20190;-86
2023/05/09 09:57:44;;;;;;;8.98;4.05;;;20.70;59.40;;;;;;4811023;29;20222;-86
2023/05/09 10:00:12;;;;;;;6.13;3.38;;;20.70;61.10;;;;;;4811079;29;20602;-85
2023/05/09 10:02:51;;;;;;;5.30;3.67;;;20.80;61.00;;;;;;4795925;29;20198;-85
2023/05/09 10:05:27;;;;;;;13.85;4.82;;;20.90;60.40;;;;;;4810776;29;20190;-86
2023/05/09 10:07:58;;;;;;;11.05;4.00;;;20.80;59.10;;;;;;4810757;29;20247;-86
2023/05/09 10:10:29;;;;;;;5.50;3.53;;;20.80;59.30;;;;;;4811579;29;20174;-85
2023/05/09 10:12:58;;;;;;;49.58;6.80;;;20.80;58.50;;;;;;4811493;29;20187;-85
2023/05/09 10:15:24;;;;;;;13.35;3.70;;;20.90;60.00;;;;;;4810623;29;20655;-86
2023/05/09 10:17:55;;;;;;;58.38;7.72;;;21.00;59.80;;;;;;4810533;29;20242;-86
2023/05/09 10:20:21;;;;;;;23.00;4.97;;;21.20;59.90;;;;;;4811140;29;20178;-85
2023/05/09 10:22:47;;;;;;;4.18;3.58;;;21.20;60.80;;;;;;4811003;29;20247;-86
2023/05/09 10:25:18;;;;;;;13.05;4.20;;;21.30;58.50;;;;;;4810342;29;20187;-86
2023/05/09 10:27:46;;;;;;;12.88;4.20;;;21.40;58.90;;;;;;4810386;29;20233;-85
2023/05/09 10:30:23;;;;;;;12.23;4.30;;;21.40;57.20;;;;;;4810656;29;20179;-85
2023/05/09 10:32:52;;;;;;;13.35;4.07;;;21.30;56.70;;;;;;4810755;29;20710;-85
2023/05/09 10:35:22;;;;;;;5.50;3.85;;;21.30;57.50;;;;;;4811068;29;20187;-86
2023/05/09 10:37:48;;;;;;;8.23;3.83;;;21.20;56.70;;;;;;4811013;29;20191;-85
2023/05/09 10:40:14;;;;;;;3.80;3.53;;;21.10;57.70;;;;;;4810144;29;20186;-85
2023/05/09 10:42:43;;;;;;;4.25;3.95;;;21.00;57.50;;;;;;4809361;29;20277;-85
2023/05/09 10:45:11;;;;;;;4.93;4.07;;;20.80;58.10;;;;;;4810106;29;20666;-85
2023/05/09 10:47:38;;;;;;;9.75;3.97;;;20.70;58.70;;;;;;4810191;29;20210;-85
2023/05/09 10:50:09;;;;;;;7.70;3.90;;;20.70;59.80;;;;;;4810818;29;20182;-85
2023/05/09 10:53:15;;;;;;;10.52;5.05;;;20.80;59.40;;;;;;4810872;29;20171;-85
2023/05/09 10:55:56;;;;;;;8.50;3.88;;;20.80;57.90;;;;;;4810181;29;20240;-86
2023/05/09 10:58:32;;;;;;;12.80;4.28;;;20.90;59.60;;;;;;4809857;29;20221;-85
2023/05/09 11:01:00;;;;;;;10.73;4.40;;;20.90;58.50;;;;;;4809889;29;20198;-85
2023/05/09 11:03:27;;;;;;;6.88;4.30;;;20.70;58.40;;;;;;4809928;29;20186;-85
2023/05/09 11:05:55;;;;;;;6.38;4.05;;;20.70;60.00;;;;;;4809756;29;20217;-85
2023/05/09 11:08:26;;;;;;;19.25;4.75;;;20.90;59.60;;;;;;4810815;29;20302;-85
2023/05/09 11:10:53;;;;;;;5.70;3.92;;;21.00;60.10;;;;;;4810580;29;20265;-85
2023/05/09 11:13:24;;;;;;;5.38;3.80;;;21.00;59.80;;;;;;4810336;29;20190;-86
2023/05/09 11:15:53;;;;;;;5.95;3.60;;;21.20;59.80;;;;;;4809984;29;20206;-86
2023/05/09 11:18:18;;;;;;;5.50;3.67;;;21.20;59.80;;;;;;4810003;29;20206;-86
2023/05/09 11:20:47;;;;;;;5.30;3.50;;;21.40;58.70;;;;;;4811325;29;20246;-86
2023/05/09 11:23:19;;;;;;;4.97;3.58;;;21.30;57.60;;;;;;4811121;29;20602;-86
2023/05/09 11:25:46;;;;;;;5.53;4.00;;;21.40;57.90;;;;;;4811300;29;20224;-86
2023/05/09 11:28:28;;;;;;;7.40;3.63;;;21.50;57.40;;;;;;4810706;29;20248;-86
2023/05/09 11:31:07;;;;;;;8.93;3.67;;;21.60;58.50;;;;;;4827987;29;20186;-86
2023/05/09 11:33:35;;;;;;;6.95;3.83;;;21.80;56.80;;;;;;4812009;29;20178;-85
2023/05/09 11:36:17;;;;;;;29.95;4.90;;;21.80;57.20;;;;;;4827291;29;20211;-86
2023/05/09 11:38:43;;;;;;;22.02;4.35;;;21.70;57.30;;;;;;4811197;29;20200;-84
2023/05/09 11:41:09;;;;;;;10.40;3.58;;;21.50;56.30;;;;;;4812106;29;20179;-85
2023/05/09 11:43:39;;;;;;;4.18;3.50;;;21.40;58.20;;;;;;4828190;29;20167;-85
2023/05/09 11:46:05;;;;;;;7.20;4.35;;;21.50;57.90;;;;;;4811185;29;20686;-86
2023/05/09 11:48:37;;;;;;;7.85;3.95;;;21.40;56.80;;;;;;4811673;29;20175;-86
2023/05/09 11:51:03;;;;;;;5.80;3.58;;;21.40;58.20;;;;;;4827433;29;20170;-86
2023/05/09 11:53:29;;;;;;;9.38;3.25;;;21.50;57.40;;;;;;4825990;29;20182;-86
2023/05/09 11:55:54;;;;;;;5.38;3.58;;;21.60;57.60;;;;;;4810564;29;20574;-86
2023/05/09 11:58:20;;;;;;;3.72;3.30;;;21.70;57.80;;;;;;4810075;29;20243;-85
2023/05/09 12:00:46;;;;;;;12.73;3.67;;;21.80;57.60;;;;;;4809819;29;20194;-85
2023/05/09 12:03:12;;;;;;;6.22;3.63;;;22.00;58.00;;;;;;4809611;29;20179;-85
2023/05/09 12:05:38;;;;;;;5.05;2.97;;;22.20;56.50;;;;;;4809279;29;20267;-85
2023/05/09 12:08:05;;;;;;;7.85;3.35;;;22.30;56.10;;;;;;4809138;29;20210;-85
2023/05/09 12:10:35;;;;;;;5.55;3.30;;;22.40;55.90;;;;;;4808672;29;20222;-86
2023/05/09 12:13:00;;;;;;;5.07;3.25;;;22.40;55.50;;;;;;4809024;29;20273;-85
2023/05/09 12:15:26;;;;;;;11.88;3.30;;;22.10;55.30;;;;;;4810269;29;20573;-85
2023/05/09 12:18:03;;;;;;;12.70;3.35;;;22.20;55.20;;;;;;4809205;29;20654;-85
2023/05/09 12:20:51;;;;;;;20.38;3.35;;;22.30;55.70;;;;;;4809326;29;20189;-85
2023/05/09 12:23:17;;;;;;;4.65;2.92;;;22.30;53.60;;;;;;4809635;29;20197;-85
2023/05/09 12:25:51;;;;;;;4.03;2.88;;;22.10;54.70;;;;;;4825527;29;20297;-84
2023/05/09 12:28:18;;;;;;;6.18;2.97;;;22.30;54.60;;;;;;4808777;29;20218;-86
2023/05/09 12:30:44;;;;;;;10.07;3.17;;;22.40;54.20;;;;;;4810026;29;20284;-86
2023/05/09 12:33:11;;;;;;;13.50;3.05;;;22.50;54.50;;;;;;4809635;29;20269;-85
2023/05/09 12:35:38;;;;;;;5.50;2.80;;;22.60;54.00;;;;;;4809631;29;20227;-85
2023/05/09 12:38:04;;;;;;;4.50;3.08;;;22.70;54.80;;;;;;4809759;29;20244;-85
2023/05/09 12:40:30;;;;;;;8.45;3.05;;;22.80;54.10;;;;;;4809738;29;20187;-85
2023/05/09 12:43:01;;;;;;;9.73;3.17;;;22.80;53.70;;;;;;4809321;29;20189;-85
2023/05/09 12:45:27;;;;;;;4.80;2.60;;;22.80;53.40;;;;;;4809660;29;20269;-86
2023/05/09 12:47:53;;;;;;;12.35;3.20;;;22.70;52.20;;;;;;4809479;29;20317;-85
2023/05/09 12:50:19;;;;;;;5.68;2.63;;;22.60;52.20;;;;;;4809454;29;20588;-85
2023/05/09 12:52:50;;;;;;;2.78;2.58;;;22.70;51.70;;;;;;4808730;29;20182;-84
2023/05/09 12:55:19;;;;;;;2.85;2.55;;;22.70;52.40;;;;;;4808324;29;20265;-83
2023/05/09 12:58:00;;;;;;;6.18;2.65;;;22.70;52.10;;;;;;4808865;29;20186;-83
2023/05/09 13:00:26;;;;;;;20.08;3.17;;;22.80;52.30;;;;;;4811272;29;20188;-84
2023/05/09 13:02:52;;;;;;;9.98;2.55;;;22.90;53.20;;;;;;4810539;29;20668;-84
2023/05/09 13:05:19;;;;;;;6.93;2.75;;;23.00;51.90;;;;;;4810963;29;20568;-83
2023/05/09 13:07:51;;;;;;;5.22;2.70;;;22.90;50.80;;;;;;4811996;29;20694;-83
2023/05/09 13:10:24;;;;;;;3.38;2.28;;;22.80;50.40;;;;;;4812508;29;20182;-83
2023/05/09 13:12:51;;;;;;;5.45;2.35;;;22.70;50.70;;;;;;4812605;29;20283;-83